Gold Beach, OR

8:01 AM PST on December 05, 2016 (GMT -0800)
KF7MWX | | Change Station

Elev 56 ft 42.41 °N, 124.42 °W | Updated 18 seconds ago

Mostly Cloudy
Mostly Cloudy
37.8 °F
Feels Like 38 °F
N
0.7
Wind Variable Wind from SE
Gusts 5.4 mph

Today
High -- | Low -- °F
--% Chance of Precip.
Yesterday
High -- | Low -- °F
Precip. -- in
Pressure 30.28 in
Visibility 10.0 miles
Clouds Mostly Cloudy 6000 ft
Windchill 38 °F
Dew Point 38 °F
Humidity 99%
Rainfall 0.00 in
Snow Depth Not available.
7:32 AM 4:44 PM
Waxing Crescent, 32% visible
METAR KBOK 051556Z AUTO 00000KT 10SM BKN060 01/00 A3023 RMK AO2 SLP254 T00060000
Pressure 30.28 in
Visibility 10.0 miles
Clouds Mostly Cloudy 6000 ft
Windchill 38 °F
Dew Point 38 °F
Humidity 99%
Rainfall 0.00 in
Snow Depth Not available.
7:32 AM 4:44 PM
Waxing Crescent, 32% visible
METAR KBOK 051556Z AUTO 00000KT 10SM BKN060 01/00 A3023 RMK AO2 SLP254 T00060000

10-Day Weather Forecast

Almanac

Astronomy

Dec. 05, 2016 Rise Set
Actual Time
Civil Twilight
Nautical Twilight
Astronomical Twilight
Moon
Length of Visible Light
Length of Day
Tomorrow will be .
, % of the Moon is Illuminated

Today's Extremes

State Highs State Lows

Community

WunderPhotos

Upload Photos

1,955,800 photos uploaded!

WunderBlog® & News

Nearby

Air Quality

  Air Quality AQ Index Pollutant
Not available.

Snow Depth

Station Depth Elevation

Earthquake Activity

City Distance Mag. Time & Date
Minimum magnitude displayed is 2.5.

Coastal Water Temperatures

Place Temperature

Stations

Nearby Weather Stations

Station Location Temp. Windchill Dew Point Humidity Wind Precip. Elev Updated Type
                   

Watches & Warnings

There are currently no watches in effect.